sensor_id;sensor_type;location;lat;lon;timestamp;pressure;altitude;pressure_sealevel;temperature;humidity
32131;BME280;18639;50.716;7.086;2024-03-23T00:55:29;99714.81;;;9.47;100.00
32131;BME280;18639;50.716;7.086;2024-03-23T00:57:54;99713.97;;;9.47;100.00
32131;BME280;18639;50.716;7.086;2024-03-23T01:00:19;99717.88;;;9.52;100.00
32131;BME280;18639;50.716;7.086;2024-03-23T01:02:44;99712.84;;;9.51;100.00
32131;BME280;18639;50.716;7.086;2024-03-23T01:05:10;99700.25;;;9.46;100.00
32131;BME280;18639;50.716;7.086;2024-03-23T01:07:35;99718.13;;;9.49;100.00
32131;BME280;18639;50.716;7.086;2024-03-23T01:10:00;99699.69;;;9.30;100.00
32131;BME280;18639;50.716;7.086;2024-03-23T01:12:25;99706.56;;;9.42;100.00
32131;BME280;18639;50.716;7.086;2024-03-23T01:14:51;99700.38;;;9.45;100.00
32131;BME280;18639;50.716;7.086;2024-03-23T01:17:16;99710.56;;;9.46;100.00
32131;BME280;18639;50.716;7.086;2024-03-23T01:19:41;99701.34;;;9.31;100.00
32131;BME280;18639;50.716;7.086;2024-03-23T01:22:07;99713.91;;;9.36;100.00
32131;BME280;18639;50.716;7.086;2024-03-23T01:24:35;99708.16;;;9.32;100.00
32131;BME280;18639;50.716;7.086;2024-03-23T01:27:00;99719.38;;;9.31;100.00
32131;BME280;18639;50.716;7.086;2024-03-23T01:29:26;99706.91;;;9.25;100.00
32131;BME280;18639;50.716;7.086;2024-03-23T01:31:51;99679.19;;;9.16;100.00
32131;BME280;18639;50.716;7.086;2024-03-23T01:34:16;99707.22;;;9.33;100.00
32131;BME280;18639;50.716;7.086;2024-03-23T01:36:41;99710.22;;;9.27;100.00
32131;BME280;18639;50.716;7.086;2024-03-23T01:39:07;99680.84;;;9.17;100.00
32131;BME280;18639;50.716;7.086;2024-03-23T01:41:34;99692.41;;;9.24;100.00
32131;BME280;18639;50.716;7.086;2024-03-23T01:44:04;99711.16;;;9.26;100.00
32131;BME280;18639;50.716;7.086;2024-03-23T01:46:30;99706.09;;;9.24;100.00
32131;BME280;18639;50.716;7.086;2024-03-23T01:48:55;99681.56;;;9.19;100.00
32131;BME280;18639;50.716;7.086;2024-03-23T01:51:20;99668.81;;;9.17;100.00
32131;BME280;18639;50.716;7.086;2024-03-23T01:53:46;99663.25;;;9.11;100.00
32131;BME280;18639;50.716;7.086;2024-03-23T01:56:11;99654.06;;;9.07;100.00
32131;BME280;18639;50.716;7.086;2024-03-23T01:58:38;99667.97;;;9.17;100.00
32131;BME280;18639;50.716;7.086;2024-03-23T02:01:03;99656.84;;;9.04;100.00
32131;BME280;18639;50.716;7.086;2024-03-23T02:03:29;99654.91;;;9.07;100.00
32131;BME280;18639;50.716;7.086;2024-03-23T02:05:55;99649.34;;;9.01;100.00
32131;BME280;18639;50.716;7.086;2024-03-23T02:08:22;99658.22;;;8.97;100.00
32131;BME280;18639;50.716;7.086;2024-03-23T02:10:48;99648.84;;;8.96;100.00
32131;BME280;18639;50.716;7.086;2024-03-23T02:13:15;99655.44;;;9.00;100.00
32131;BME280;18639;50.716;7.086;2024-03-23T02:15:41;99668.81;;;9.05;100.00
32131;BME280;18639;50.716;7.086;2024-03-23T02:18:07;99678.19;;;9.06;100.00
32131;BME280;18639;50.716;7.086;2024-03-23T02:20:33;99675.31;;;8.98;100.00
32131;BME280;18639;50.716;7.086;2024-03-23T02:22:59;99684.81;;;8.84;100.00
32131;BME280;18639;50.716;7.086;2024-03-23T02:25:24;99670.28;;;8.71;100.00
32131;BME280;18639;50.716;7.086;2024-03-23T02:27:49;99669.25;;;8.73;100.00
32131;BME280;18639;50.716;7.086;2024-03-23T02:30:15;99687.19;;;8.75;100.00
32131;BME280;18639;50.716;7.086;2024-03-23T02:32:40;99681.72;;;8.67;100.00
32131;BME280;18639;50.716;7.086;2024-03-23T02:35:06;99692.66;;;8.70;100.00
32131;BME280;18639;50.716;7.086;2024-03-23T02:37:31;99693.59;;;8.69;100.00
32131;BME280;18639;50.716;7.086;2024-03-23T02:39:57;99663.91;;;8.51;100.00
32131;BME280;18639;50.716;7.086;2024-03-23T02:42:23;99674.63;;;8.58;100.00
32131;BME280;18639;50.716;7.086;2024-03-23T02:44:48;99662.91;;;8.54;100.00
32131;BME280;18639;50.716;7.086;2024-03-23T02:47:13;99678.22;;;8.55;100.00
32131;BME280;18639;50.716;7.086;2024-03-23T02:49:38;99669.97;;;8.50;100.00
32131;BME280;18639;50.716;7.086;2024-03-23T02:52:04;99677.91;;;8.47;100.00
32131;BME280;18639;50.716;7.086;2024-03-23T02:54:29;99697.19;;;8.54;100.00
32131;BME280;18639;50.716;7.086;2024-03-23T02:56:54;99691.94;;;8.43;100.00
32131;BME280;18639;50.716;7.086;2024-03-23T02:59:20;99694.16;;;8.35;100.00
32131;BME280;18639;50.716;7.086;2024-03-23T03:01:45;99688.84;;;8.38;100.00
32131;BME280;18639;50.716;7.086;2024-03-23T03:04:10;99699.13;;;8.38;100.00
32131;BME280;18639;50.716;7.086;2024-03-23T03:06:35;99693.72;;;8.28;100.00
32131;BME280;18639;50.716;7.086;2024-03-23T03:09:01;99711.72;;;8.16;100.00
32131;BME280;18639;50.716;7.086;2024-03-23T03:11:26;99714.47;;;7.73;100.00
32131;BME280;18639;50.716;7.086;2024-03-23T03:13:51;99713.72;;;7.71;100.00
32131;BME280;18639;50.716;7.086;2024-03-23T03:16:17;99715.50;;;7.56;100.00
32131;BME280;18639;50.716;7.086;2024-03-23T03:18:42;99716.53;;;7.40;100.00
32131;BME280;18639;50.716;7.086;2024-03-23T03:21:08;99722.25;;;7.31;100.00
32131;BME280;18639;50.716;7.086;2024-03-23T03:23:39;99717.94;;;7.17;100.00
32131;BME280;18639;50.716;7.086;2024-03-23T03:26:05;99741.25;;;7.28;100.00
32131;BME280;18639;50.716;7.086;2024-03-23T03:28:31;99739.97;;;7.35;100.00
32131;BME280;18639;50.716;7.086;2024-03-23T03:30:58;99743.72;;;7.30;100.00
32131;BME280;18639;50.716;7.086;2024-03-23T03:33:23;99752.34;;;7.29;100.00
32131;BME280;18639;50.716;7.086;2024-03-23T03:35:48;99742.16;;;7.27;100.00
32131;BME280;18639;50.716;7.086;2024-03-23T03:38:14;99705.22;;;7.15;100.00
32131;BME280;18639;50.716;7.086;2024-03-23T03:40:39;99717.66;;;7.22;100.00
32131;BME280;18639;50.716;7.086;2024-03-23T03:43:04;99738.41;;;7.18;100.00
32131;BME280;18639;50.716;7.086;2024-03-23T03:45:30;99731.91;;;7.13;100.00
32131;BME280;18639;50.716;7.086;2024-03-23T03:47:55;99723.19;;;7.01;100.00
32131;BME280;18639;50.716;7.086;2024-03-23T03:50:21;99745.28;;;7.18;100.00
32131;BME280;18639;50.716;7.086;2024-03-23T03:52:47;99743.84;;;7.14;100.00
32131;BME280;18639;50.716;7.086;2024-03-23T03:55:13;99705.94;;;6.89;100.00
32131;BME280;18639;50.716;7.086;2024-03-23T03:57:39;99728.41;;;7.14;100.00
32131;BME280;18639;50.716;7.086;2024-03-23T04:00:05;99739.88;;;7.23;100.00
32131;BME280;18639;50.716;7.086;2024-03-23T04:02:31;99716.88;;;7.21;100.00
32131;BME280;18639;50.716;7.086;2024-03-23T04:04:56;99719.59;;;7.18;100.00
32131;BME280;18639;50.716;7.086;2024-03-23T04:07:22;99741.16;;;7.30;100.00
32131;BME280;18639;50.716;7.086;2024-03-23T04:09:48;99744.66;;;7.29;100.00
32131;BME280;18639;50.716;7.086;2024-03-23T04:12:14;99761.81;;;7.28;100.00
32131;BME280;18639;50.716;7.086;2024-03-23T04:14:40;99754.56;;;7.21;100.00
32131;BME280;18639;50.716;7.086;2024-03-23T04:17:06;99747.94;;;7.16;100.00
32131;BME280;18639;50.716;7.086;2024-03-23T04:19:31;99755.41;;;7.21;100.00
32131;BME280;18639;50.716;7.086;2024-03-23T04:21:56;99751.47;;;7.15;100.00
32131;BME280;18639;50.716;7.086;2024-03-23T04:24:22;99752.91;;;7.19;100.00
32131;BME280;18639;50.716;7.086;2024-03-23T04:26:47;99759.31;;;7.27;100.00
32131;BME280;18639;50.716;7.086;2024-03-23T04:29:13;99770.34;;;7.14;100.00
32131;BME280;18639;50.716;7.086;2024-03-23T04:31:38;99764.47;;;7.12;100.00
32131;BME280;18639;50.716;7.086;2024-03-23T04:34:04;99776.13;;;7.18;100.00
32131;BME280;18639;50.716;7.086;2024-03-23T04:36:29;99782.44;;;7.12;100.00
32131;BME280;18639;50.716;7.086;2024-03-23T04:38:56;99755.84;;;6.99;100.00
32131;BME280;18639;50.716;7.086;2024-03-23T04:41:21;99759.13;;;7.01;100.00
32131;BME280;18639;50.716;7.086;2024-03-23T04:43:46;99770.09;;;7.05;100.00
32131;BME280;18639;50.716;7.086;2024-03-23T04:46:12;99764.47;;;6.98;100.00
32131;BME280;18639;50.716;7.086;2024-03-23T04:48:37;99785.22;;;7.09;100.00
32131;BME280;18639;50.716;7.086;2024-03-23T04:51:02;99784.31;;;7.10;100.00
32131;BME280;18639;50.716;7.086;2024-03-23T04:53:28;99789.44;;;7.10;100.00
32131;BME280;18639;50.716;7.086;2024-03-23T04:55:58;99778.03;;;7.00;100.00
32131;BME280;18639;50.716;7.086;2024-03-23T04:58:24;99782.81;;;7.06;100.00
32131;BME280;18639;50.716;7.086;2024-03-23T05:00:56;99801.19;;;7.14;100.00
32131;BME280;18639;50.716;7.086;2024-03-23T05:03:22;99778.50;;;7.07;100.00
32131;BME280;18639;50.716;7.086;2024-03-23T05:05:48;99789.34;;;7.12;100.00
32131;BME280;18639;50.716;7.086;2024-03-23T05:08:14;99775.38;;;7.02;100.00
32131;BME280;18639;50.716;7.086;2024-03-23T05:10:41;99784.13;;;6.99;100.00
32131;BME280;18639;50.716;7.086;2024-03-23T05:13:06;99794.75;;;7.07;100.00
32131;BME280;18639;50.716;7.086;2024-03-23T05:15:32;99768.88;;;6.96;100.00
32131;BME280;18639;50.716;7.086;2024-03-23T05:17:57;99787.78;;;7.09;100.00
32131;BME280;18639;50.716;7.086;2024-03-23T05:20:22;99771.06;;;7.02;100.00
32131;BME280;18639;50.716;7.086;2024-03-23T05:22:48;99743.91;;;6.84;100.00
32131;BME280;18639;50.716;7.086;2024-03-23T05:25:13;99782.25;;;7.01;100.00
32131;BME280;18639;50.716;7.086;2024-03-23T05:27:38;99767.22;;;6.95;100.00
32131;BME280;18639;50.716;7.086;2024-03-23T05:30:04;99788.69;;;6.94;100.00
32131;BME280;18639;50.716;7.086;2024-03-23T05:32:31;99789.97;;;7.01;100.00
32131;BME280;18639;50.716;7.086;2024-03-23T05:34:56;99785.56;;;7.03;100.00
32131;BME280;18639;50.716;7.086;2024-03-23T05:37:22;99782.53;;;6.97;100.00
32131;BME280;18639;50.716;7.086;2024-03-23T05:39:48;99789.25;;;6.99;100.00
32131;BME280;18639;50.716;7.086;2024-03-23T05:42:18;99779.41;;;6.92;100.00
32131;BME280;18639;50.716;7.086;2024-03-23T05:44:47;99790.78;;;7.02;100.00
32131;BME280;18639;50.716;7.086;2024-03-23T05:47:12;99783.91;;;7.02;100.00
32131;BME280;18639;50.716;7.086;2024-03-23T05:49:45;99770.78;;;6.93;100.00
32131;BME280;18639;50.716;7.086;2024-03-23T05:52:11;99795.56;;;7.08;100.00
32131;BME280;18639;50.716;7.086;2024-03-23T05:54:36;99769.78;;;6.95;100.00
32131;BME280;18639;50.716;7.086;2024-03-23T05:57:02;99776.22;;;7.02;100.00
32131;BME280;18639;50.716;7.086;2024-03-23T05:59:28;99792.81;;;7.11;100.00
32131;BME280;18639;50.716;7.086;2024-03-23T06:01:53;99795.78;;;7.05;100.00
32131;BME280;18639;50.716;7.086;2024-03-23T06:04:19;99789.59;;;7.07;100.00
32131;BME280;18639;50.716;7.086;2024-03-23T06:06:44;99798.06;;;7.09;100.00
32131;BME280;18639;50.716;7.086;2024-03-23T06:09:09;99805.84;;;7.08;100.00
32131;BME280;18639;50.716;7.086;2024-03-23T06:11:34;99794.75;;;7.07;100.00
32131;BME280;18639;50.716;7.086;2024-03-23T06:14:00;99786.13;;;7.08;100.00
32131;BME280;18639;50.716;7.086;2024-03-23T06:16:25;99796.03;;;7.14;100.00
32131;BME280;18639;50.716;7.086;2024-03-23T06:18:52;99791.06;;;7.11;100.00
32131;BME280;18639;50.716;7.086;2024-03-23T06:21:17;99791.47;;;7.19;100.00
32131;BME280;18639;50.716;7.086;2024-03-23T06:23:42;99785.41;;;7.21;100.00
32131;BME280;18639;50.716;7.086;2024-03-23T06:26:08;99774.75;;;7.12;100.00
32131;BME280;18639;50.716;7.086;2024-03-23T06:28:34;99798.06;;;7.24;100.00
32131;BME280;18639;50.716;7.086;2024-03-23T06:30:59;99792.84;;;7.25;100.00
32131;BME280;18639;50.716;7.086;2024-03-23T06:33:24;99788.16;;;7.17;100.00
32131;BME280;18639;50.716;7.086;2024-03-23T06:35:51;99783.63;;;7.07;100.00
32131;BME280;18639;50.716;7.086;2024-03-23T06:38:17;99795.13;;;7.15;100.00
32131;BME280;18639;50.716;7.086;2024-03-23T06:40:42;99800.44;;;7.12;100.00
32131;BME280;18639;50.716;7.086;2024-03-23T06:43:08;99783.47;;;7.10;100.00
32131;BME280;18639;50.716;7.086;2024-03-23T06:45:33;99803.84;;;7.13;100.00
32131;BME280;18639;50.716;7.086;2024-03-23T06:47:59;99769.06;;;6.93;100.00
32131;BME280;18639;50.716;7.086;2024-03-23T06:50:25;99810.78;;;7.11;100.00
32131;BME280;18639;50.716;7.086;2024-03-23T06:52:50;99808.97;;;7.13;100.00
32131;BME280;18639;50.716;7.086;2024-03-23T06:55:15;99814.75;;;7.16;100.00
32131;BME280;18639;50.716;7.086;2024-03-23T06:57:40;99803.00;;;7.12;100.00
32131;BME280;18639;50.716;7.086;2024-03-23T07:00:06;99823.88;;;7.36;100.00
32131;BME280;18639;50.716;7.086;2024-03-23T07:02:35;99820.09;;;7.42;100.00
32131;BME280;18639;50.716;7.086;2024-03-23T07:05:00;99807.06;;;7.31;100.00
32131;BME280;18639;50.716;7.086;2024-03-23T07:07:25;99818.53;;;7.39;100.00
32131;BME280;18639;50.716;7.086;2024-03-23T07:09:52;99807.63;;;7.36;100.00
32131;BME280;18639;50.716;7.086;2024-03-23T07:12:17;99831.47;;;7.52;100.00
32131;BME280;18639;50.716;7.086;2024-03-23T07:14:43;99823.22;;;7.47;100.00
32131;BME280;18639;50.716;7.086;2024-03-23T07:17:08;99854.34;;;7.56;100.00
32131;BME280;18639;50.716;7.086;2024-03-23T07:19:33;99836.88;;;7.61;100.00
32131;BME280;18639;50.716;7.086;2024-03-23T07:21:59;99830.34;;;7.70;100.00
32131;BME280;18639;50.716;7.086;2024-03-23T07:24:24;99837.25;;;7.84;100.00
32131;BME280;18639;50.716;7.086;2024-03-23T07:26:49;99834.00;;;7.80;100.00
32131;BME280;18639;50.716;7.086;2024-03-23T07:29:16;99835.66;;;7.95;100.00
32131;BME280;18639;50.716;7.086;2024-03-23T07:31:41;99838.41;;;8.07;100.00
32131;BME280;18639;50.716;7.086;2024-03-23T07:34:07;99842.97;;;8.16;100.00
32131;BME280;18639;50.716;7.086;2024-03-23T07:36:32;99827.06;;;8.09;100.00
32131;BME280;18639;50.716;7.086;2024-03-23T07:38:57;99835.97;;;8.32;100.00
32131;BME280;18639;50.716;7.086;2024-03-23T07:41:22;99844.97;;;8.52;100.00
32131;BME280;18639;50.716;7.086;2024-03-23T07:43:48;99847.25;;;8.56;100.00
32131;BME280;18639;50.716;7.086;2024-03-23T07:46:15;99841.31;;;8.68;100.00
32131;BME280;18639;50.716;7.086;2024-03-23T07:48:41;99849.34;;;8.76;100.00
32131;BME280;18639;50.716;7.086;2024-03-23T07:51:18;99841.19;;;8.97;100.00
32131;BME280;18639;50.716;7.086;2024-03-23T07:53:44;99851.81;;;9.17;100.00
32131;BME280;18639;50.716;7.086;2024-03-23T07:56:14;99837.66;;;9.36;100.00
32131;BME280;18639;50.716;7.086;2024-03-23T07:58:44;99858.50;;;9.58;100.00
32131;BME280;18639;50.716;7.086;2024-03-23T08:01:11;99864.44;;;9.84;100.00
32131;BME280;18639;50.716;7.086;2024-03-23T08:03:37;99868.50;;;10.11;100.00
32131;BME280;18639;50.716;7.086;2024-03-23T08:06:16;99847.97;;;10.23;100.00
32131;BME280;18639;50.716;7.086;2024-03-23T08:08:44;99859.59;;;10.76;100.00
32131;BME280;18639;50.716;7.086;2024-03-23T08:11:10;99874.03;;;11.13;100.00
32131;BME280;18639;50.716;7.086;2024-03-23T08:13:37;99920.44;;;11.04;100.00
32131;BME280;18639;50.716;7.086;2024-03-23T08:16:03;99912.59;;;10.34;100.00
32131;BME280;18639;50.716;7.086;2024-03-23T08:18:28;99916.91;;;9.34;100.00
32131;BME280;18639;50.716;7.086;2024-03-23T08:21:04;99885.72;;;8.72;100.00
32131;BME280;18639;50.716;7.086;2024-03-23T08:23:31;99838.88;;;8.26;100.00
32131;BME280;18639;50.716;7.086;2024-03-23T08:25:59;99852.66;;;8.25;100.00
32131;BME280;18639;50.716;7.086;2024-03-23T08:28:25;99865.81;;;8.20;100.00
32131;BME280;18639;50.716;7.086;2024-03-23T08:30:52;99865.00;;;8.20;100.00
32131;BME280;18639;50.716;7.086;2024-03-23T08:33:17;99868.03;;;8.12;100.00
32131;BME280;18639;50.716;7.086;2024-03-23T08:35:42;99885.34;;;8.51;100.00
32131;BME280;18639;50.716;7.086;2024-03-23T08:38:08;99879.22;;;9.06;100.00
32131;BME280;18639;50.716;7.086;2024-03-23T08:40:33;99881.38;;;9.75;100.00
32131;BME280;18639;50.716;7.086;2024-03-23T08:42:58;99875.91;;;10.52;100.00
32131;BME280;18639;50.716;7.086;2024-03-23T08:45:26;99877.88;;;11.43;100.00
32131;BME280;18639;50.716;7.086;2024-03-23T08:47:52;99881.16;;;12.22;100.00
32131;BME280;18639;50.716;7.086;2024-03-23T08:50:17;99865.81;;;12.94;93.64
32131;BME280;18639;50.716;7.086;2024-03-23T08:52:42;99875.75;;;13.82;87.63
32131;BME280;18639;50.716;7.086;2024-03-23T08:55:08;99874.41;;;15.14;86.54
32131;BME280;18639;50.716;7.086;2024-03-23T08:57:35;99871.09;;;15.78;79.90
32131;BME280;18639;50.716;7.086;2024-03-23T09:00:00;99851.09;;;15.78;78.13
32131;BME280;18639;50.716;7.086;2024-03-23T09:02:25;99856.63;;;15.66;76.95
32131;BME280;18639;50.716;7.086;2024-03-23T09:04:51;99861.03;;;15.92;79.83
32131;BME280;18639;50.716;7.086;2024-03-23T09:07:16;99857.75;;;16.18;78.44
32131;BME280;18639;50.716;7.086;2024-03-23T09:09:41;99848.94;;;16.64;77.49
32131;BME280;18639;50.716;7.086;2024-03-23T09:12:06;99854.00;;;16.03;70.68
32131;BME280;18639;50.716;7.086;2024-03-23T09:14:35;99847.66;;;15.78;78.27
32131;BME280;18639;50.716;7.086;2024-03-23T09:17:02;99845.72;;;15.33;81.14
32131;BME280;18639;50.716;7.086;2024-03-23T09:19:30;99847.03;;;14.91;79.51
32131;BME280;18639;50.716;7.086;2024-03-23T09:21:55;99846.41;;;14.79;80.03
32131;BME280;18639;50.716;7.086;2024-03-23T09:24:21;99838.78;;;14.09;83.37
32131;BME280;18639;50.716;7.086;2024-03-23T09:26:46;99853.72;;;13.76;83.77
32131;BME280;18639;50.716;7.086;2024-03-23T09:29:12;99854.63;;;13.56;83.23
32131;BME280;18639;50.716;7.086;2024-03-23T09:31:37;99845.66;;;13.39;88.03
32131;BME280;18639;50.716;7.086;2024-03-23T09:34:03;99839.25;;;12.60;86.42
32131;BME280;18639;50.716;7.086;2024-03-23T09:36:28;99847.78;;;12.40;89.93
32131;BME280;18639;50.716;7.086;2024-03-23T09:38:54;99827.06;;;11.86;92.17
32131;BME280;18639;50.716;7.086;2024-03-23T09:41:19;99843.88;;;12.03;92.96
32131;BME280;18639;50.716;7.086;2024-03-23T09:43:45;99839.41;;;12.48;87.66
32131;BME280;18639;50.716;7.086;2024-03-23T09:46:13;99841.97;;;13.42;86.08
32131;BME280;18639;50.716;7.086;2024-03-23T09:48:39;99839.22;;;14.23;79.57
32131;BME280;18639;50.716;7.086;2024-03-23T09:51:04;99849.38;;;14.94;73.54
32131;BME280;18639;50.716;7.086;2024-03-23T09:53:29;99827.03;;;15.10;68.78
32131;BME280;18639;50.716;7.086;2024-03-23T09:55:54;99842.25;;;15.89;66.14
32131;BME280;18639;50.716;7.086;2024-03-23T09:58:23;99835.91;;;16.36;65.80
32131;BME280;18639;50.716;7.086;2024-03-23T10:00:48;99824.53;;;16.55;59.91
32131;BME280;18639;50.716;7.086;2024-03-23T10:03:13;99826.84;;;16.76;58.28
32131;BME280;18639;50.716;7.086;2024-03-23T10:05:39;99825.94;;;15.87;60.78
32131;BME280;18639;50.716;7.086;2024-03-23T10:10:42;99817.34;;;14.36;66.30
32131;BME280;18639;50.716;7.086;2024-03-23T10:13:08;99829.94;;;14.21;70.87
32131;BME280;18639;50.716;7.086;2024-03-23T10:15:34;99842.00;;;14.41;77.03
32131;BME280;18639;50.716;7.086;2024-03-23T10:18:17;99812.84;;;14.38;69.01
32131;BME280;18639;50.716;7.086;2024-03-23T10:20:43;99822.75;;;15.19;72.48
32131;BME280;18639;50.716;7.086;2024-03-23T10:23:16;99834.31;;;15.44;66.55
32131;BME280;18639;50.716;7.086;2024-03-23T10:25:41;99840.28;;;15.27;63.51
32131;BME280;18639;50.716;7.086;2024-03-23T10:28:07;99823.38;;;14.94;67.44
32131;BME280;18639;50.716;7.086;2024-03-23T10:30:32;99860.50;;;14.57;66.41
32131;BME280;18639;50.716;7.086;2024-03-23T10:33:12;99859.72;;;13.67;71.07
32131;BME280;18639;50.716;7.086;2024-03-23T10:35:38;99870.38;;;12.81;78.34
32131;BME280;18639;50.716;7.086;2024-03-23T10:38:07;99878.81;;;12.19;79.20
32131;BME280;18639;50.716;7.086;2024-03-23T10:40:36;99888.56;;;11.49;81.71
32131;BME280;18639;50.716;7.086;2024-03-23T10:43:03;99896.91;;;10.24;90.23
32131;BME280;18639;50.716;7.086;2024-03-23T10:45:29;99908.31;;;9.84;97.83
32131;BME280;18639;50.716;7.086;2024-03-23T10:47:54;99884.25;;;8.95;100.00
32131;BME280;18639;50.716;7.086;2024-03-23T10:50:19;99910.78;;;8.82;100.00
32131;BME280;18639;50.716;7.086;2024-03-23T10:52:48;99900.13;;;9.01;100.00
32131;BME280;18639;50.716;7.086;2024-03-23T10:55:17;99875.31;;;8.73;100.00
32131;BME280;18639;50.716;7.086;2024-03-23T10:57:49;99873.34;;;8.64;100.00
32131;BME280;18639;50.716;7.086;2024-03-23T11:00:16;99894.88;;;8.63;100.00
32131;BME280;18639;50.716;7.086;2024-03-23T11:02:42;99886.78;;;8.55;100.00
32131;BME280;18639;50.716;7.086;2024-03-23T11:07:51;99882.97;;;8.87;100.00
32131;BME280;18639;50.716;7.086;2024-03-23T11:10:30;99886.53;;;9.12;100.00
32131;BME280;18639;50.716;7.086;2024-03-23T11:12:57;99887.50;;;9.49;100.00
32131;BME280;18639;50.716;7.086;2024-03-23T11:15:22;99882.03;;;9.66;100.00
32131;BME280;18639;50.716;7.086;2024-03-23T11:18:05;99875.81;;;9.81;98.73
32131;BME280;18639;50.716;7.086;2024-03-23T11:20:33;99880.50;;;10.12;100.00
32131;BME280;18639;50.716;7.086;2024-03-23T11:23:00;99883.19;;;10.24;100.00
32131;BME280;18639;50.716;7.086;2024-03-23T11:25:29;99864.94;;;10.38;100.00
32131;BME280;18639;50.716;7.086;2024-03-23T11:28:10;99870.44;;;10.57;100.00
32131;BME280;18639;50.716;7.086;2024-03-23T11:30:36;99860.22;;;10.55;96.65
32131;BME280;18639;50.716;7.086;2024-03-23T11:33:03;99882.25;;;10.72;96.86
32131;BME280;18639;50.716;7.086;2024-03-23T11:38:11;99872.81;;;10.36;87.34
32131;BME280;18639;50.716;7.086;2024-03-23T11:40:41;99867.47;;;10.14;83.90
32131;BME280;18639;50.716;7.086;2024-03-23T11:43:08;99856.69;;;10.33;82.87
32131;BME280;18639;50.716;7.086;2024-03-23T11:45:38;99846.75;;;10.39;82.11
32131;BME280;18639;50.716;7.086;2024-03-23T11:48:06;99855.25;;;10.76;84.93
32131;BME280;18639;50.716;7.086;2024-03-23T11:50:33;99843.06;;;10.78;86.22
32131;BME280;18639;50.716;7.086;2024-03-23T11:53:08;99852.16;;;11.06;90.62
32131;BME280;18639;50.716;7.086;2024-03-23T11:55:48;99855.31;;;10.98;90.07
32131;BME280;18639;50.716;7.086;2024-03-23T11:58:15;99845.28;;;10.83;89.26
32131;BME280;18639;50.716;7.086;2024-03-23T12:00:40;99855.28;;;10.87;91.67
32131;BME280;18639;50.716;7.086;2024-03-23T12:03:06;99863.38;;;10.83;92.15
32131;BME280;18639;50.716;7.086;2024-03-23T12:05:33;99857.88;;;10.64;94.28
32131;BME280;18639;50.716;7.086;2024-03-23T12:10:53;99836.81;;;10.46;95.61
32131;BME280;18639;50.716;7.086;2024-03-23T12:13:22;99839.94;;;10.62;96.14
32131;BME280;18639;50.716;7.086;2024-03-23T12:15:50;99833.97;;;10.73;97.24
32131;BME280;18639;50.716;7.086;2024-03-23T12:18:16;99816.31;;;10.55;96.55
32131;BME280;18639;50.716;7.086;2024-03-23T12:20:41;99813.06;;;10.76;93.59
32131;BME280;18639;50.716;7.086;2024-03-23T12:23:08;99820.94;;;10.74;95.56
32131;BME280;18639;50.716;7.086;2024-03-23T12:25:35;99817.22;;;10.54;93.80
32131;BME280;18639;50.716;7.086;2024-03-23T12:28:01;99822.28;;;10.56;96.42
32131;BME280;18639;50.716;7.086;2024-03-23T12:30:26;99810.44;;;10.65;93.65
32131;BME280;18639;50.716;7.086;2024-03-23T12:32:52;99807.38;;;10.60;92.91
32131;BME280;18639;50.716;7.086;2024-03-23T12:35:17;99791.56;;;10.75;92.40
32131;BME280;18639;50.716;7.086;2024-03-23T12:37:43;99800.75;;;10.90;91.34
32131;BME280;18639;50.716;7.086;2024-03-23T12:40:09;99786.03;;;10.69;89.72
32131;BME280;18639;50.716;7.086;2024-03-23T12:42:34;99778.91;;;10.72;90.15
32131;BME280;18639;50.716;7.086;2024-03-23T12:44:59;99787.38;;;10.96;89.25
32131;BME280;18639;50.716;7.086;2024-03-23T12:47:25;99795.50;;;11.03;83.88
32131;BME280;18639;50.716;7.086;2024-03-23T12:49:51;99790.25;;;11.16;82.51
32131;BME280;18639;50.716;7.086;2024-03-23T12:52:17;99813.28;;;11.30;79.71
32131;BME280;18639;50.716;7.086;2024-03-23T12:54:42;99817.41;;;11.21;84.99
32131;BME280;18639;50.716;7.086;2024-03-23T12:57:07;99815.41;;;10.68;84.09
32131;BME280;18639;50.716;7.086;2024-03-23T12:59:33;99830.81;;;10.45;87.68
32131;BME280;18639;50.716;7.086;2024-03-23T13:02:00;99830.94;;;10.20;91.64
32131;BME280;18639;50.716;7.086;2024-03-23T13:04:25;99824.94;;;10.07;93.26
32131;BME280;18639;50.716;7.086;2024-03-23T13:06:51;99838.94;;;9.92;91.95
32131;BME280;18639;50.716;7.086;2024-03-23T13:09:16;99855.84;;;9.96;93.40
32131;BME280;18639;50.716;7.086;2024-03-23T13:11:42;99848.88;;;9.72;90.65
32131;BME280;18639;50.716;7.086;2024-03-23T13:14:07;99847.97;;;9.48;92.69
32131;BME280;18639;50.716;7.086;2024-03-23T13:16:32;99849.44;;;9.40;94.04
32131;BME280;18639;50.716;7.086;2024-03-23T13:18:58;99843.47;;;9.39;95.24
32131;BME280;18639;50.716;7.086;2024-03-23T13:21:23;99821.69;;;9.43;96.31
32131;BME280;18639;50.716;7.086;2024-03-23T13:23:48;99824.44;;;9.65;95.64
32131;BME280;18639;50.716;7.086;2024-03-23T13:26:15;99817.41;;;9.67;93.22
32131;BME280;18639;50.716;7.086;2024-03-23T13:28:40;99813.25;;;9.78;94.95
32131;BME280;18639;50.716;7.086;2024-03-23T13:31:06;99790.78;;;9.67;93.88
32131;BME280;18639;50.716;7.086;2024-03-23T13:33:33;99803.56;;;9.81;93.69
32131;BME280;18639;50.716;7.086;2024-03-23T13:35:58;99786.03;;;9.73;94.18
32131;BME280;18639;50.716;7.086;2024-03-23T13:38:24;99802.59;;;9.95;94.92
32131;BME280;18639;50.716;7.086;2024-03-23T13:40:54;99796.22;;;10.11;91.03
32131;BME280;18639;50.716;7.086;2024-03-23T13:43:19;99792.63;;;10.14;89.59
32131;BME280;18639;50.716;7.086;2024-03-23T13:45:48;99792.31;;;10.19;92.60
32131;BME280;18639;50.716;7.086;2024-03-23T13:48:15;99776.81;;;10.19;89.40
32131;BME280;18639;50.716;7.086;2024-03-23T13:50:41;99769.00;;;10.31;89.06
32131;BME280;18639;50.716;7.086;2024-03-23T13:53:07;99782.22;;;10.50;88.72
32131;BME280;18639;50.716;7.086;2024-03-23T13:55:33;99782.41;;;10.71;86.37
32131;BME280;18639;50.716;7.086;2024-03-23T13:57:58;99760.91;;;10.71;84.57
32131;BME280;18639;50.716;7.086;2024-03-23T14:00:24;99763.75;;;10.79;84.70